• Join FlightAware (Why Join?)
  • Login
  • US Flag 
09:49PM EDT


 

Airport Tracker/Info


-or-


 

Live Flight TrackerFlight Track Log ✈ JIA2394 ✈ 12-May-2012 ✈ KGSP - KCLT

Flight Track Log - Related Links

Times and Time Zones

All times are in EDT time to prevent confusion due to time zone crossing. See the JIA2394 flight status page for this flight to view local times or setup timezone preferences in your user account.

Time Position Orientation Groundspeed Altitude Reporting Facility
EDT Latitude Longitude Course Direction KTS MPH feet Rate Location/Type
07:09PM 34.9095 -82.1711 211° Southwest  Level FlightAware Approximate
07:10PM 34.8502 -82.1170 251° West  Level FlightAware Approximate
07:11PM 34.8161 -82.2400 126° Southeast 169 194 4,600  Level Atlanta Center
07:15PM 34.6769 -82.0081 81° East 251 289 11,000 1,260 Climbing Atlanta Center
07:16PM 34.6900 -81.9117 82° East 271 312 11,000  Level Atlanta Center
07:17PM 34.7025 -81.7978 83° East 300 345 11,000  Level Atlanta Center
07:17PM 34.7078 -81.7419 80° East 300 345 11,000  Level Atlanta Center
07:19PM 34.7281 -81.6050 69° East 295 339 11,000  Level Atlanta Center
07:20PM 34.7556 -81.5156 46° Northeast 278 320 11,000  Level Atlanta Center
07:21PM 34.8144 -81.4406 47° Northeast 282 325 11,000  Level Atlanta Center
07:22PM 34.8711 -81.3653 46° Northeast 289 333 11,000  Level Atlanta Center
07:23PM 34.9300 -81.2900 46° Northeast 296 341 11,000  Level Atlanta Center
07:24PM 34.9869 -81.2169 47° Northeast 301 346 11,000 -180 Level Atlanta Center
07:25PM 35.0456 -81.1414 44° Northeast 301 346 10,700 -960 Descending Atlanta Center
07:26PM 35.1025 -81.0736 North 292 336 9,100 -900 Descending Atlanta Center
07:27PM 35.1753 -81.0708 357° North 255 293 9,000 -840 Descending Atlanta Center
07:28PM 35.2569 -81.0756 356° North 233 268 7,300 -1,440 Descending Atlanta Center
07:29PM 35.3175 -81.0811 11° North 237 273 5,900 -1,560 Descending Atlanta Center
07:30PM 35.3778 -81.0661 98° East 237 273 4,400 -1,380 Descending Atlanta Center
07:31PM 35.3694 -80.9900 159° South 217 250 3,000 -780 Descending Atlanta Center
07:32PM 35.3147 -80.9642 159° South 176 203 2,700 -300 Descending Atlanta Center